Time;durP1;ratioP1;P1;durP2;ratioP2;P2;SDS_P1;SDS_P2;PMS_P1;PMS_P2;Temp;Humidity;BMP_temperature;BMP_pressure;BME280_temperature;BME280_humidity;BME280_pressure;Samples;Min_cycle;Max_cycle;Signal;HPM_P1;HPM_P2
2021/05/07 00:01:48;;;;;;;0.10;0.10;;;;;;;;;;5116802;28;20202;-67
2021/05/07 00:04:15;;;;;;;0.10;0.10;;;;;;;;;;5123616;28;20209;-68
2021/05/07 00:06:40;;;;;;;0.10;0.10;;;;;;;;;;5123763;28;20492;-66
2021/05/07 00:09:07;;;;;;;0.20;0.20;;;;;;;;;;5123606;28;20230;-67
2021/05/07 00:11:33;;;;;;;0.10;0.10;;;;;;;;;;5122676;28;20275;-66
2021/05/07 00:13:59;;;;;;;0.10;0.10;;;;;;;;;;5123240;28;20318;-67
2021/05/07 00:16:27;;;;;;;0.10;0.10;;;;;;;;;;5123583;28;20208;-66
2021/05/07 00:18:52;;;;;;;0.10;0.10;;;;;;;;;;5123234;28;20225;-66
2021/05/07 00:21:18;;;;;;;0.10;0.10;;;;;;;;;;5123682;28;20242;-67
2021/05/07 00:23:44;;;;;;;0.10;0.10;;;;;;;;;;5123274;28;20206;-66
2021/05/07 00:26:11;;;;;;;0.10;0.10;;;;;;;;;;5123343;28;20261;-66
2021/05/07 00:28:37;;;;;;;0.10;0.10;;;;;;;;;;5118944;28;20252;-67
2021/05/07 00:31:03;;;;;;;0.10;0.10;;;;;;;;;;5123909;28;20206;-67
2021/05/07 00:33:29;;;;;;;0.10;0.10;;;;;;;;;;5123673;28;20205;-66
2021/05/07 00:35:55;;;;;;;0.10;0.10;;;;;;;;;;5123442;28;20217;-67
2021/05/07 00:38:20;;;;;;;0.10;0.10;;;;;;;;;;5123152;28;20202;-67
2021/05/07 00:40:46;;;;;;;0.10;0.10;;;;;;;;;;5123570;28;20201;-67
2021/05/07 00:43:13;;;;;;;0.10;0.10;;;;;;;;;;5123120;28;20212;-66
2021/05/07 00:45:39;;;;;;;0.10;0.10;;;;;;;;;;5123390;28;20205;-66
2021/05/07 00:48:08;;;;;;;0.10;0.10;;;;;;;;;;5123439;28;20500;-66
2021/05/07 00:50:35;;;;;;;0.10;0.10;;;;;;;;;;5123362;28;20560;-66
2021/05/07 00:53:01;;;;;;;0.10;0.10;;;;;;;;;;5123487;28;20243;-66
2021/05/07 00:55:27;;;;;;;0.10;0.10;;;;;;;;;;5122891;28;20202;-65
2021/05/07 00:57:53;;;;;;;0.10;0.10;;;;;;;;;;5123409;28;20209;-66
2021/05/07 01:00:23;;;;;;;0.10;0.10;;;;;;;;;;5123355;28;20224;-66
2021/05/07 01:02:49;;;;;;;0.10;0.10;;;;;;;;;;5127227;28;20206;-67
2021/05/07 01:05:15;;;;;;;0.13;0.13;;;;;;;;;;5123728;28;20347;-67
2021/05/07 01:07:41;;;;;;;0.10;0.10;;;;;;;;;;5126660;28;20202;-68
2021/05/07 01:10:09;;;;;;;0.10;0.10;;;;;;;;;;5126597;28;20274;-69
2021/05/07 01:12:35;;;;;;;0.10;0.10;;;;;;;;;;5126377;28;20200;-67
2021/05/07 01:15:04;;;;;;;0.10;0.10;;;;;;;;;;5126690;28;20200;-67
2021/05/07 01:17:30;;;;;;;0.13;0.13;;;;;;;;;;5126483;28;20529;-67
2021/05/07 01:20:05;;;;;;;0.17;0.17;;;;;;;;;;5126688;28;20421;-66
2021/05/07 01:22:30;;;;;;;0.13;0.13;;;;;;;;;;5126729;28;20203;-68
2021/05/07 01:24:56;;;;;;;0.10;0.10;;;;;;;;;;5126172;28;20201;-67
2021/05/07 01:27:22;;;;;;;0.10;0.10;;;;;;;;;;5126519;28;20241;-67
2021/05/07 01:29:47;;;;;;;0.10;0.10;;;;;;;;;;5126454;28;20200;-67
2021/05/07 01:32:13;;;;;;;0.10;0.10;;;;;;;;;;5126513;28;20236;-67
2021/05/07 01:34:39;;;;;;;0.10;0.10;;;;;;;;;;5126416;28;20202;-68
2021/05/07 01:37:05;;;;;;;0.10;0.10;;;;;;;;;;5119939;28;20215;-69
2021/05/07 01:39:31;;;;;;;0.10;0.10;;;;;;;;;;5126126;28;20229;-67
2021/05/07 01:41:57;;;;;;;0.10;0.10;;;;;;;;;;5126258;28;20376;-66
2021/05/07 01:44:23;;;;;;;0.10;0.10;;;;;;;;;;5118478;28;20468;-67
2021/05/07 01:46:48;;;;;;;0.10;0.10;;;;;;;;;;5126036;28;20379;-67
2021/05/07 01:49:14;;;;;;;0.17;0.17;;;;;;;;;;5126138;28;20480;-66
2021/05/07 01:51:40;;;;;;;0.10;0.10;;;;;;;;;;5125937;28;20201;-68
2021/05/07 01:54:06;;;;;;;0.10;0.10;;;;;;;;;;5126023;28;20276;-69
2021/05/07 01:56:32;;;;;;;0.10;0.10;;;;;;;;;;5125845;28;20500;-66
2021/05/07 01:58:58;;;;;;;0.10;0.10;;;;;;;;;;5113892;28;20240;-66
2021/05/07 02:01:24;;;;;;;0.10;0.10;;;;;;;;;;5123883;28;20208;-67
2021/05/07 02:03:49;;;;;;;0.10;0.10;;;;;;;;;;5125887;28;20499;-66
2021/05/07 02:06:15;;;;;;;0.10;0.10;;;;;;;;;;5125507;28;20205;-67
2021/05/07 02:08:41;;;;;;;0.10;0.10;;;;;;;;;;5125459;27;20233;-66
2021/05/07 02:11:08;;;;;;;0.10;0.10;;;;;;;;;;5125544;28;20216;-68
2021/05/07 02:13:33;;;;;;;0.10;0.10;;;;;;;;;;5125352;28;20220;-67
2021/05/07 02:15:59;;;;;;;0.10;0.10;;;;;;;;;;5125421;28;20202;-67
2021/05/07 02:18:25;;;;;;;0.10;0.10;;;;;;;;;;5125545;28;20533;-67
2021/05/07 02:20:53;;;;;;;0.10;0.10;;;;;;;;;;5125291;28;20231;-68
2021/05/07 02:23:20;;;;;;;0.10;0.10;;;;;;;;;;5124856;28;20204;-68
2021/05/07 02:25:46;;;;;;;0.10;0.10;;;;;;;;;;5125109;28;20407;-68
2021/05/07 02:28:12;;;;;;;0.10;0.10;;;;;;;;;;5124891;27;20216;-68
2021/05/07 02:30:38;;;;;;;0.10;0.10;;;;;;;;;;5125349;28;20220;-67
2021/05/07 02:33:04;;;;;;;0.10;0.10;;;;;;;;;;5125349;28;20222;-67
2021/05/07 02:35:30;;;;;;;0.10;0.10;;;;;;;;;;5125179;28;20469;-67
2021/05/07 02:37:56;;;;;;;0.10;0.10;;;;;;;;;;5124898;28;20210;-67
2021/05/07 02:40:22;;;;;;;0.10;0.10;;;;;;;;;;5124929;28;20248;-66
2021/05/07 02:42:48;;;;;;;0.10;0.10;;;;;;;;;;5125506;28;20209;-68
2021/05/07 02:45:14;;;;;;;0.10;0.10;;;;;;;;;;5119567;28;20198;-67
2021/05/07 02:47:41;;;;;;;0.10;0.10;;;;;;;;;;5124927;28;20202;-68
2021/05/07 02:50:07;;;;;;;0.10;0.10;;;;;;;;;;5124432;28;20201;-67
2021/05/07 02:52:33;;;;;;;0.60;0.60;;;;;;;;;;5124581;28;20205;-67
2021/05/07 02:54:59;;;;;;;0.10;0.10;;;;;;;;;;5127021;27;20260;-67
2021/05/07 02:57:25;;;;;;;0.10;0.10;;;;;;;;;;5124380;28;20258;-67
2021/05/07 02:59:50;;;;;;;0.10;0.10;;;;;;;;;;5123384;28;20280;-68
2021/05/07 03:02:17;;;;;;;0.10;0.10;;;;;;;;;;5124652;28;20224;-66
2021/05/07 03:04:43;;;;;;;0.10;0.10;;;;;;;;;;5128259;27;20527;-67
2021/05/07 03:07:08;;;;;;;0.10;0.10;;;;;;;;;;5127929;27;20201;-66
2021/05/07 03:09:34;;;;;;;0.20;0.20;;;;;;;;;;5124337;28;20194;-67
2021/05/07 03:12:00;;;;;;;0.10;0.10;;;;;;;;;;5127873;27;20277;-66
2021/05/07 03:14:26;;;;;;;0.10;0.10;;;;;;;;;;5124087;28;20206;-66
2021/05/07 03:16:52;;;;;;;0.10;0.10;;;;;;;;;;5124437;27;20201;-65
2021/05/07 03:19:18;;;;;;;0.10;0.10;;;;;;;;;;5124000;28;20400;-67
2021/05/07 03:21:44;;;;;;;0.10;0.10;;;;;;;;;;5123828;28;20356;-66
2021/05/07 03:24:12;;;;;;;0.10;0.10;;;;;;;;;;5124805;27;20201;-67
2021/05/07 03:26:38;;;;;;;0.10;0.10;;;;;;;;;;5124021;28;20208;-66
2021/05/07 03:29:04;;;;;;;0.10;0.10;;;;;;;;;;5124118;28;20198;-66
2021/05/07 03:31:30;;;;;;;0.20;0.20;;;;;;;;;;5122799;28;20225;-67
2021/05/07 03:33:56;;;;;;;0.10;0.10;;;;;;;;;;5123958;28;20209;-67
2021/05/07 03:36:23;;;;;;;0.20;0.20;;;;;;;;;;5123784;28;20280;-68
2021/05/07 03:38:48;;;;;;;0.10;0.10;;;;;;;;;;5124067;28;20228;-67
2021/05/07 03:41:14;;;;;;;0.10;0.10;;;;;;;;;;5124119;28;20266;-68
2021/05/07 03:43:40;;;;;;;0.10;0.10;;;;;;;;;;5124709;28;20198;-67
2021/05/07 03:46:06;;;;;;;0.10;0.10;;;;;;;;;;5124056;28;20519;-69
2021/05/07 03:48:31;;;;;;;0.10;0.10;;;;;;;;;;5119511;28;20272;-67
2021/05/07 03:50:58;;;;;;;0.10;0.10;;;;;;;;;;5115790;28;20213;-66
2021/05/07 03:53:24;;;;;;;0.10;0.10;;;;;;;;;;5123571;28;20272;-67
2021/05/07 03:55:50;;;;;;;0.10;0.10;;;;;;;;;;5124259;28;20210;-67
2021/05/07 03:58:16;;;;;;;0.20;0.20;;;;;;;;;;5133921;28;20219;-67
2021/05/07 04:00:42;;;;;;;0.10;0.10;;;;;;;;;;5123808;28;20460;-66
2021/05/07 04:03:08;;;;;;;0.10;0.10;;;;;;;;;;5123381;28;20482;-67
2021/05/07 04:05:34;;;;;;;0.10;0.10;;;;;;;;;;5122781;28;20208;-68
2021/05/07 04:08:06;;;;;;;0.10;0.10;;;;;;;;;;5123922;28;20212;-67
2021/05/07 04:10:37;;;;;;;0.10;0.10;;;;;;;;;;5123869;28;20192;-67
2021/05/07 04:15:47;;;;;;;0.10;0.10;;;;;;;;;;5123658;28;20200;-68
2021/05/07 04:18:12;;;;;;;0.10;0.10;;;;;;;;;;5123771;28;20201;-67
2021/05/07 04:20:38;;;;;;;0.10;0.10;;;;;;;;;;5123666;28;20530;-67
2021/05/07 04:23:04;;;;;;;0.10;0.10;;;;;;;;;;5123865;28;20202;-67
2021/05/07 04:25:29;;;;;;;0.10;0.10;;;;;;;;;;5123632;28;20484;-67
2021/05/07 04:27:56;;;;;;;0.13;0.13;;;;;;;;;;5123827;28;20250;-67
2021/05/07 04:30:22;;;;;;;0.10;0.10;;;;;;;;;;5123515;28;20209;-67
2021/05/07 04:32:48;;;;;;;0.20;0.20;;;;;;;;;;5130335;28;20278;-67
2021/05/07 04:35:13;;;;;;;0.10;0.10;;;;;;;;;;5123643;28;20205;-67
2021/05/07 04:37:39;;;;;;;0.10;0.10;;;;;;;;;;5127124;28;20213;-65
2021/05/07 04:40:05;;;;;;;0.10;0.10;;;;;;;;;;5127164;28;20232;-66
2021/05/07 04:42:31;;;;;;;0.10;0.10;;;;;;;;;;5127472;28;20213;-66
2021/05/07 04:44:58;;;;;;;0.10;0.10;;;;;;;;;;5127337;28;20198;-66
2021/05/07 04:47:23;;;;;;;0.10;0.10;;;;;;;;;;5127298;28;20215;-67
2021/05/07 04:49:49;;;;;;;0.10;0.10;;;;;;;;;;5127213;28;20201;-66
2021/05/07 04:52:15;;;;;;;0.10;0.10;;;;;;;;;;5127257;27;20466;-66
2021/05/07 04:54:40;;;;;;;0.10;0.10;;;;;;;;;;5126707;28;20500;-66
2021/05/07 04:57:06;;;;;;;0.10;0.10;;;;;;;;;;5126836;28;20201;-66
2021/05/07 04:59:32;;;;;;;0.10;0.10;;;;;;;;;;5126669;28;20217;-66
2021/05/07 05:01:59;;;;;;;0.10;0.10;;;;;;;;;;5127113;28;20198;-65
2021/05/07 05:04:25;;;;;;;0.10;0.10;;;;;;;;;;5126961;28;20213;-67
2021/05/07 05:06:51;;;;;;;0.10;0.10;;;;;;;;;;5127105;28;20511;-66
2021/05/07 05:09:16;;;;;;;0.10;0.10;;;;;;;;;;5126603;28;20225;-66
2021/05/07 05:11:42;;;;;;;0.10;0.10;;;;;;;;;;5127047;28;20243;-67
2021/05/07 05:14:08;;;;;;;0.10;0.10;;;;;;;;;;5126611;28;20204;-66
2021/05/07 05:16:33;;;;;;;0.10;0.10;;;;;;;;;;5125829;28;20380;-68
2021/05/07 05:19:00;;;;;;;0.10;0.10;;;;;;;;;;5126212;28;20216;-67
2021/05/07 05:21:26;;;;;;;0.13;0.13;;;;;;;;;;5126758;28;20213;-66
2021/05/07 05:23:51;;;;;;;0.23;0.23;;;;;;;;;;5130150;27;20200;-67
2021/05/07 05:26:17;;;;;;;0.10;0.10;;;;;;;;;;5126532;28;20301;-66
2021/05/07 05:28:43;;;;;;;0.10;0.10;;;;;;;;;;5126371;28;20201;-66
2021/05/07 05:31:09;;;;;;;0.10;0.10;;;;;;;;;;5126277;28;20287;-65
2021/05/07 05:33:35;;;;;;;0.13;0.13;;;;;;;;;;5125483;28;20548;-66
2021/05/07 05:36:01;;;;;;;0.20;0.20;;;;;;;;;;5128646;27;20262;-67
2021/05/07 05:38:27;;;;;;;0.20;0.20;;;;;;;;;;5129581;27;20196;-66
2021/05/07 05:40:53;;;;;;;0.10;0.10;;;;;;;;;;5129667;27;20226;-67
2021/05/07 05:43:19;;;;;;;0.10;0.10;;;;;;;;;;5126069;28;20227;-67
2021/05/07 05:45:44;;;;;;;0.20;0.20;;;;;;;;;;5126062;28;20204;-66
2021/05/07 05:48:12;;;;;;;0.10;0.10;;;;;;;;;;5124058;28;20198;-67
2021/05/07 05:50:39;;;;;;;0.13;0.13;;;;;;;;;;5126001;28;20339;-66
2021/05/07 05:53:05;;;;;;;0.23;0.23;;;;;;;;;;5138727;27;20211;-67
2021/05/07 05:55:31;;;;;;;0.20;0.20;;;;;;;;;;5121075;28;20209;-67
2021/05/07 05:57:57;;;;;;;0.10;0.10;;;;;;;;;;5112854;28;20547;-66
2021/05/07 06:00:23;;;;;;;0.20;0.20;;;;;;;;;;5125935;27;20217;-67
2021/05/07 06:02:49;;;;;;;0.10;0.10;;;;;;;;;;5126113;27;20480;-67
2021/05/07 06:05:15;;;;;;;0.10;0.10;;;;;;;;;;5124254;28;20223;-67
2021/05/07 06:07:41;;;;;;;0.20;0.20;;;;;;;;;;5129460;27;20258;-67
2021/05/07 06:10:10;;;;;;;0.10;0.10;;;;;;;;;;5125431;28;20417;-67
2021/05/07 06:12:36;;;;;;;0.30;0.30;;;;;;;;;;5127592;27;20225;-65
2021/05/07 06:15:02;;;;;;;1.87;1.73;;;;;;;;;;5130230;27;20200;-67
2021/05/07 06:17:27;;;;;;;0.20;0.20;;;;;;;;;;5127226;27;20202;-70
2021/05/07 06:19:53;;;;;;;0.10;0.10;;;;;;;;;;5127749;27;20232;-67
2021/05/07 06:22:19;;;;;;;0.10;0.10;;;;;;;;;;5129929;27;20240;-67
2021/05/07 06:24:45;;;;;;;0.10;0.10;;;;;;;;;;5130838;27;20242;-68
2021/05/07 06:27:11;;;;;;;0.10;0.10;;;;;;;;;;5136059;27;20280;-69
2021/05/07 06:29:37;;;;;;;0.10;0.10;;;;;;;;;;5131062;27;20487;-68
2021/05/07 06:32:03;;;;;;;0.30;0.30;;;;;;;;;;5129251;27;20224;-67
2021/05/07 06:34:29;;;;;;;0.20;0.20;;;;;;;;;;5125711;27;20227;-68
2021/05/07 06:36:54;;;;;;;0.10;0.10;;;;;;;;;;5131708;27;20417;-67
2021/05/07 06:39:20;;;;;;;0.20;0.20;;;;;;;;;;5127856;27;20225;-70
2021/05/07 06:41:46;;;;;;;0.10;0.10;;;;;;;;;;5117581;28;20203;-72
2021/05/07 06:44:12;;;;;;;0.10;0.10;;;;;;;;;;5129452;27;20208;-70
2021/05/07 06:46:38;;;;;;;0.10;0.10;;;;;;;;;;5128225;27;20212;-69
2021/05/07 06:49:04;;;;;;;0.10;0.10;;;;;;;;;;5131036;27;20221;-69
2021/05/07 06:51:30;;;;;;;0.10;0.10;;;;;;;;;;5132870;27;20214;-70
2021/05/07 06:53:56;;;;;;;0.10;0.10;;;;;;;;;;5123618;28;20210;-72
2021/05/07 06:56:21;;;;;;;0.20;0.20;;;;;;;;;;5124675;28;20291;-71
2021/05/07 06:58:47;;;;;;;0.10;0.10;;;;;;;;;;5123966;27;20518;-70
2021/05/07 07:01:14;;;;;;;0.20;0.20;;;;;;;;;;5127434;27;20208;-70
2021/05/07 07:03:40;;;;;;;0.20;0.20;;;;;;;;;;5119408;27;20215;-70
2021/05/07 07:06:05;;;;;;;0.10;0.10;;;;;;;;;;5130384;27;20229;-71
2021/05/07 07:08:31;;;;;;;0.10;0.10;;;;;;;;;;5122632;28;20221;-68
2021/05/07 07:10:58;;;;;;;0.20;0.20;;;;;;;;;;5125738;27;20199;-70
2021/05/07 07:13:24;;;;;;;0.20;0.20;;;;;;;;;;5131545;27;20487;-69
2021/05/07 07:15:50;;;;;;;0.10;0.10;;;;;;;;;;5122750;28;20224;-68
2021/05/07 07:18:19;;;;;;;0.20;0.20;;;;;;;;;;5119693;27;20299;-68
2021/05/07 07:20:45;;;;;;;0.17;0.17;;;;;;;;;;5133188;27;20609;-69
2021/05/07 07:23:11;;;;;;;0.10;0.10;;;;;;;;;;5128133;27;20271;-68
2021/05/07 07:25:37;;;;;;;0.10;0.10;;;;;;;;;;5125378;28;20205;-69
2021/05/07 07:28:04;;;;;;;0.13;0.13;;;;;;;;;;5126991;28;20192;-70
2021/05/07 07:30:29;;;;;;;0.10;0.10;;;;;;;;;;5124610;28;20204;-68
2021/05/07 07:32:55;;;;;;;0.20;0.20;;;;;;;;;;5127483;27;20417;-70
2021/05/07 07:35:22;;;;;;;0.10;0.10;;;;;;;;;;5126490;27;20444;-71
2021/05/07 07:37:48;;;;;;;0.17;0.17;;;;;;;;;;5128902;27;20222;-70
2021/05/07 07:40:14;;;;;;;0.10;0.10;;;;;;;;;;5127761;27;20291;-69
2021/05/07 07:42:54;;;;;;;0.20;0.20;;;;;;;;;;5123868;28;20201;-69
2021/05/07 07:45:20;;;;;;;0.10;0.10;;;;;;;;;;5124103;27;20264;-70
2021/05/07 07:47:46;;;;;;;0.10;0.10;;;;;;;;;;5123852;28;20204;-68
2021/05/07 07:50:12;;;;;;;0.10;0.10;;;;;;;;;;5123910;28;20390;-68
2021/05/07 07:52:39;;;;;;;0.20;0.20;;;;;;;;;;5126309;28;20226;-69
2021/05/07 07:55:06;;;;;;;0.20;0.20;;;;;;;;;;5124001;28;20209;-70
2021/05/07 07:57:32;;;;;;;0.13;0.13;;;;;;;;;;5123791;28;20461;-68
2021/05/07 07:59:58;;;;;;;0.10;0.10;;;;;;;;;;5129495;28;20232;-69
2021/05/07 08:02:25;;;;;;;0.20;0.20;;;;;;;;;;5123916;28;20401;-67
2021/05/07 08:04:51;;;;;;;0.10;0.10;;;;;;;;;;5119417;28;20514;-68
2021/05/07 08:07:18;;;;;;;0.13;0.13;;;;;;;;;;5115775;28;20204;-69
2021/05/07 08:09:45;;;;;;;0.10;0.10;;;;;;;;;;5131380;27;20196;-68
2021/05/07 08:12:11;;;;;;;0.10;0.10;;;;;;;;;;5130231;27;20320;-69
2021/05/07 08:14:37;;;;;;;0.17;0.17;;;;;;;;;;5129870;27;20205;-68
2021/05/07 08:17:03;;;;;;;0.20;0.20;;;;;;;;;;5139859;27;20314;-69
2021/05/07 08:19:29;;;;;;;0.10;0.10;;;;;;;;;;5128406;28;20250;-70
2021/05/07 08:21:55;;;;;;;0.10;0.10;;;;;;;;;;5127982;28;20206;-69
2021/05/07 08:24:21;;;;;;;0.10;0.10;;;;;;;;;;5128073;28;20212;-69
2021/05/07 08:26:48;;;;;;;0.20;0.20;;;;;;;;;;5118379;28;20204;-69
2021/05/07 08:29:14;;;;;;;0.10;0.10;;;;;;;;;;5131454;27;20208;-68
2021/05/07 08:31:40;;;;;;;0.13;0.13;;;;;;;;;;5127804;28;20276;-69
2021/05/07 08:34:06;;;;;;;0.20;0.20;;;;;;;;;;5129086;27;20212;-68
2021/05/07 08:36:32;;;;;;;0.10;0.10;;;;;;;;;;5127420;28;20211;-69
2021/05/07 08:38:58;;;;;;;0.20;0.20;;;;;;;;;;5120702;28;20250;-69
2021/05/07 08:41:24;;;;;;;0.10;0.10;;;;;;;;;;5128498;27;20245;-69
2021/05/07 08:43:52;;;;;;;0.20;0.20;;;;;;;;;;5133041;27;20208;-69
2021/05/07 08:46:19;;;;;;;0.20;0.20;;;;;;;;;;5121890;28;20211;-70
2021/05/07 08:48:45;;;;;;;0.20;0.20;;;;;;;;;;5130098;27;20251;-67
2021/05/07 08:51:12;;;;;;;0.10;0.10;;;;;;;;;;5137975;27;20384;-69
2021/05/07 08:53:38;;;;;;;0.10;0.10;;;;;;;;;;5132367;27;20208;-72
2021/05/07 08:56:04;;;;;;;0.20;0.20;;;;;;;;;;5139569;27;20203;-69
2021/05/07 08:58:31;;;;;;;0.17;0.17;;;;;;;;;;5133015;27;20274;-69
2021/05/07 09:00:57;;;;;;;0.20;0.20;;;;;;;;;;5126748;27;20303;-68
2021/05/07 09:03:23;;;;;;;0.10;0.10;;;;;;;;;;5134751;27;20210;-68
2021/05/07 09:05:49;;;;;;;0.10;0.10;;;;;;;;;;5121630;28;20204;-70
2021/05/07 09:08:15;;;;;;;0.33;0.33;;;;;;;;;;5125910;27;20207;-69
2021/05/07 09:10:42;;;;;;;0.20;0.20;;;;;;;;;;5127342;28;20195;-68
2021/05/07 09:13:09;;;;;;;0.10;0.10;;;;;;;;;;5128734;27;20202;-67
2021/05/07 09:15:42;;;;;;;0.10;0.10;;;;;;;;;;5125619;28;20208;-67
2021/05/07 09:18:09;;;;;;;0.20;0.20;;;;;;;;;;5126899;28;20227;-68
2021/05/07 09:20:35;;;;;;;0.20;0.20;;;;;;;;;;5129864;27;20365;-68
2021/05/07 09:23:02;;;;;;;0.20;0.20;;;;;;;;;;5136493;27;20197;-69
2021/05/07 09:25:27;;;;;;;0.33;0.33;;;;;;;;;;5134709;27;20201;-68
2021/05/07 09:27:54;;;;;;;0.23;0.23;;;;;;;;;;5131998;27;20213;-68
2021/05/07 09:30:24;;;;;;;0.20;0.20;;;;;;;;;;5131756;27;20212;-68
2021/05/07 09:32:50;;;;;;;0.20;0.20;;;;;;;;;;5129063;27;20420;-70
2021/05/07 09:35:17;;;;;;;0.20;0.20;;;;;;;;;;5122092;27;20481;-68
2021/05/07 09:37:44;;;;;;;0.20;0.20;;;;;;;;;;5123588;27;20224;-69
2021/05/07 09:40:14;;;;;;;0.77;0.77;;;;;;;;;;5124928;27;20222;-70
2021/05/07 09:42:40;;;;;;;0.20;0.20;;;;;;;;;;5125500;27;20265;-70
2021/05/07 09:45:17;;;;;;;0.20;0.20;;;;;;;;;;5132939;27;20202;-69
2021/05/07 09:47:43;;;;;;;0.20;0.20;;;;;;;;;;5130566;27;20216;-69
2021/05/07 09:50:10;;;;;;;0.20;0.20;;;;;;;;;;5126910;27;20480;-69
2021/05/07 09:52:36;;;;;;;0.20;0.20;;;;;;;;;;5128197;27;20204;-68
2021/05/07 09:55:03;;;;;;;0.20;0.20;;;;;;;;;;5125789;27;20210;-71
2021/05/07 09:57:29;;;;;;;0.20;0.20;;;;;;;;;;5129894;27;20216;-69
2021/05/07 09:59:55;;;;;;;0.20;0.20;;;;;;;;;;5127770;27;20293;-70
2021/05/07 10:02:21;;;;;;;0.20;0.20;;;;;;;;;;5125469;28;20326;-70
2021/05/07 10:04:48;;;;;;;0.20;0.20;;;;;;;;;;5125964;28;20274;-69
2021/05/07 10:07:14;;;;;;;0.20;0.20;;;;;;;;;;5129835;27;20197;-70
2021/05/07 10:09:40;;;;;;;0.20;0.20;;;;;;;;;;5127033;27;20422;-70
2021/05/07 10:12:07;;;;;;;0.20;0.20;;;;;;;;;;5132106;27;20216;-69
2021/05/07 10:14:40;;;;;;;0.20;0.20;;;;;;;;;;5123105;28;20199;-69
2021/05/07 10:17:09;;;;;;;0.20;0.20;;;;;;;;;;5123141;27;20191;-70
2021/05/07 10:19:40;;;;;;;0.20;0.20;;;;;;;;;;5124387;28;20232;-70
2021/05/07 10:22:08;;;;;;;0.20;0.20;;;;;;;;;;5129725;27;20199;-70
2021/05/07 10:24:35;;;;;;;0.20;0.20;;;;;;;;;;5130679;27;20228;-71
2021/05/07 10:27:13;;;;;;;0.20;0.20;;;;;;;;;;5118008;27;20273;-73
2021/05/07 10:29:39;;;;;;;0.20;0.20;;;;;;;;;;5125155;28;20256;-68
2021/05/07 10:32:05;;;;;;;0.20;0.20;;;;;;;;;;5124981;28;20288;-69
2021/05/07 10:34:41;;;;;;;0.10;0.10;;;;;;;;;;5127289;27;20249;-72
2021/05/07 10:37:12;;;;;;;0.20;0.20;;;;;;;;;;5129233;27;20212;-69
2021/05/07 10:39:50;;;;;;;0.10;0.10;;;;;;;;;;5123283;27;20376;-69
2021/05/07 10:42:17;;;;;;;0.20;0.20;;;;;;;;;;5122148;27;20245;-69
2021/05/07 10:44:43;;;;;;;0.20;0.20;;;;;;;;;;5124536;28;20205;-68
2021/05/07 10:47:10;;;;;;;0.20;0.20;;;;;;;;;;5124603;28;20275;-71
2021/05/07 10:49:37;;;;;;;0.20;0.20;;;;;;;;;;5125022;28;20290;-73
2021/05/07 10:52:05;;;;;;;0.20;0.20;;;;;;;;;;5123243;28;20498;-70
2021/05/07 10:54:35;;;;;;;0.10;0.10;;;;;;;;;;5112799;27;20199;-71
2021/05/07 10:57:01;;;;;;;0.10;0.10;;;;;;;;;;5121968;28;20202;-71
2021/05/07 10:59:27;;;;;;;0.20;0.20;;;;;;;;;;5118186;28;20254;-72
2021/05/07 11:01:56;;;;;;;0.10;0.10;;;;;;;;;;5127197;27;20208;-71
2021/05/07 11:04:22;;;;;;;0.10;0.10;;;;;;;;;;5123365;28;20201;-69
2021/05/07 11:06:58;;;;;;;0.10;0.10;;;;;;;;;;5125667;27;20610;-69
2021/05/07 11:09:24;;;;;;;0.10;0.10;;;;;;;;;;5120954;28;20225;-70
2021/05/07 11:11:51;;;;;;;0.10;0.10;;;;;;;;;;5121640;27;20236;-71
2021/05/07 11:14:17;;;;;;;0.10;0.10;;;;;;;;;;5124286;28;20200;-71
2021/05/07 11:16:45;;;;;;;0.10;0.10;;;;;;;;;;5125249;28;20348;-70
2021/05/07 11:19:20;;;;;;;0.20;0.20;;;;;;;;;;5115424;27;20204;-69
2021/05/07 11:21:48;;;;;;;0.20;0.20;;;;;;;;;;5125814;27;20525;-71
2021/05/07 11:24:14;;;;;;;0.10;0.10;;;;;;;;;;5121743;27;20206;-71
2021/05/07 11:26:40;;;;;;;0.10;0.10;;;;;;;;;;5140658;27;20400;-71
2021/05/07 11:29:05;;;;;;;0.10;0.10;;;;;;;;;;5133246;27;20519;-70
2021/05/07 11:31:31;;;;;;;0.10;0.10;;;;;;;;;;5124263;28;20279;-70
2021/05/07 11:33:58;;;;;;;0.10;0.10;;;;;;;;;;5124150;28;20272;-70
2021/05/07 11:36:24;;;;;;;0.10;0.10;;;;;;;;;;5119509;28;20292;-70
2021/05/07 11:38:50;;;;;;;0.10;0.10;;;;;;;;;;5117936;28;20457;-68
2021/05/07 11:41:16;;;;;;;0.10;0.10;;;;;;;;;;5121955;28;20224;-69
2021/05/07 11:43:42;;;;;;;0.10;0.10;;;;;;;;;;5124930;28;20328;-70
2021/05/07 11:46:08;;;;;;;0.10;0.10;;;;;;;;;;5124335;28;20209;-70
2021/05/07 11:48:35;;;;;;;0.10;0.10;;;;;;;;;;5122476;28;20200;-71
2021/05/07 11:51:05;;;;;;;0.10;0.10;;;;;;;;;;5124369;28;20233;-71
2021/05/07 11:53:31;;;;;;;0.10;0.10;;;;;;;;;;5124294;28;20486;-70
2021/05/07 11:55:57;;;;;;;0.10;0.10;;;;;;;;;;5127536;28;20247;-70
2021/05/07 11:58:29;;;;;;;0.10;0.10;;;;;;;;;;5126275;28;20196;-70
2021/05/07 12:00:55;;;;;;;0.20;0.20;;;;;;;;;;5125549;28;20220;-70
2021/05/07 12:03:25;;;;;;;0.10;0.10;;;;;;;;;;5122037;28;20214;-70
2021/05/07 12:05:52;;;;;;;0.10;0.10;;;;;;;;;;5125081;28;20269;-70
2021/05/07 12:08:26;;;;;;;0.10;0.10;;;;;;;;;;5123723;28;20275;-70
2021/05/07 12:10:52;;;;;;;0.10;0.10;;;;;;;;;;5122958;28;20197;-71
2021/05/07 12:13:21;;;;;;;0.10;0.10;;;;;;;;;;5120897;28;20200;-70
2021/05/07 12:15:48;;;;;;;0.10;0.10;;;;;;;;;;5124712;28;20203;-71
2021/05/07 12:18:16;;;;;;;0.10;0.10;;;;;;;;;;5123958;28;20198;-71
2021/05/07 12:20:43;;;;;;;0.10;0.10;;;;;;;;;;5122985;28;20412;-71
2021/05/07 12:23:09;;;;;;;0.10;0.10;;;;;;;;;;5122820;28;20301;-69
2021/05/07 12:25:40;;;;;;;0.10;0.10;;;;;;;;;;5122314;28;20471;-70
2021/05/07 12:28:12;;;;;;;0.10;0.10;;;;;;;;;;5121801;28;20205;-70
2021/05/07 12:30:38;;;;;;;0.10;0.10;;;;;;;;;;5122842;28;20197;-70
2021/05/07 12:33:05;;;;;;;0.10;0.10;;;;;;;;;;5124168;28;20228;-68
2021/05/07 12:35:39;;;;;;;0.10;0.10;;;;;;;;;;5123248;28;20198;-69
2021/05/07 12:38:18;;;;;;;0.10;0.10;;;;;;;;;;5121230;28;20418;-69
2021/05/07 12:40:45;;;;;;;0.10;0.10;;;;;;;;;;5121377;28;20334;-70
2021/05/07 12:43:11;;;;;;;0.10;0.10;;;;;;;;;;5115677;28;20252;-70
2021/05/07 12:45:37;;;;;;;0.10;0.10;;;;;;;;;;5116982;28;20210;-70
2021/05/07 12:48:04;;;;;;;0.10;0.10;;;;;;;;;;5114433;28;20483;-69
2021/05/07 12:50:30;;;;;;;0.10;0.10;;;;;;;;;;5127143;28;20222;-71
2021/05/07 12:52:56;;;;;;;0.10;0.10;;;;;;;;;;5122624;28;20270;-69
2021/05/07 12:55:22;;;;;;;0.10;0.10;;;;;;;;;;5117308;28;20217;-70
2021/05/07 12:57:49;;;;;;;0.10;0.10;;;;;;;;;;5113469;27;20291;-69
2021/05/07 13:00:15;;;;;;;0.10;0.10;;;;;;;;;;5124594;27;20227;-69
2021/05/07 13:02:41;;;;;;;0.10;0.10;;;;;;;;;;5128701;27;20206;-70
2021/05/07 13:05:08;;;;;;;0.17;0.17;;;;;;;;;;5117166;27;20203;-69
2021/05/07 13:07:34;;;;;;;0.10;0.10;;;;;;;;;;5124168;27;20311;-69
2021/05/07 13:10:00;;;;;;;0.10;0.10;;;;;;;;;;5129623;27;20412;-69
2021/05/07 13:12:26;;;;;;;0.10;0.10;;;;;;;;;;5128832;27;20201;-70
2021/05/07 13:14:53;;;;;;;0.10;0.10;;;;;;;;;;5122543;27;20205;-69
2021/05/07 13:17:19;;;;;;;0.10;0.10;;;;;;;;;;5126342;27;20396;-70
2021/05/07 13:19:46;;;;;;;0.10;0.10;;;;;;;;;;5114189;27;20294;-70
2021/05/07 13:22:12;;;;;;;0.10;0.10;;;;;;;;;;5125468;27;20207;-65
2021/05/07 13:24:38;;;;;;;0.10;0.10;;;;;;;;;;5127148;27;20396;-65
2021/05/07 13:27:06;;;;;;;0.10;0.10;;;;;;;;;;5121022;28;20492;-66
2021/05/07 13:29:31;;;;;;;0.20;0.20;;;;;;;;;;5127774;27;20491;-66
2021/05/07 13:31:59;;;;;;;0.10;0.10;;;;;;;;;;5123621;27;20229;-67
2021/05/07 13:34:26;;;;;;;0.10;0.10;;;;;;;;;;5120223;28;20475;-69
2021/05/07 13:36:52;;;;;;;0.10;0.10;;;;;;;;;;5114220;28;20535;-68
2021/05/07 13:39:18;;;;;;;0.10;0.10;;;;;;;;;;5121822;27;20207;-65
2021/05/07 13:41:44;;;;;;;0.10;0.10;;;;;;;;;;5124710;28;20249;-65
2021/05/07 13:44:11;;;;;;;0.10;0.10;;;;;;;;;;5120660;27;20210;-66
2021/05/07 13:46:37;;;;;;;0.10;0.10;;;;;;;;;;5124227;27;20324;-65
2021/05/07 13:49:04;;;;;;;0.10;0.10;;;;;;;;;;5120066;27;20503;-65
2021/05/07 13:51:30;;;;;;;0.10;0.10;;;;;;;;;;5121947;27;20244;-66
2021/05/07 13:53:56;;;;;;;0.10;0.10;;;;;;;;;;5118954;27;20205;-65
2021/05/07 13:56:22;;;;;;;0.10;0.10;;;;;;;;;;5121569;27;20215;-62
2021/05/07 13:58:48;;;;;;;0.10;0.10;;;;;;;;;;5124747;27;20214;-65
2021/05/07 14:01:14;;;;;;;0.10;0.10;;;;;;;;;;5119380;27;20247;-68
2021/05/07 14:03:40;;;;;;;0.10;0.10;;;;;;;;;;5119722;27;20201;-65
2021/05/07 14:06:07;;;;;;;0.10;0.10;;;;;;;;;;5123788;27;20275;-66
2021/05/07 14:08:33;;;;;;;0.10;0.10;;;;;;;;;;5119942;28;20214;-65
2021/05/07 14:11:00;;;;;;;0.10;0.10;;;;;;;;;;5119233;27;20216;-67
2021/05/07 14:13:26;;;;;;;0.10;0.10;;;;;;;;;;5122021;27;20256;-67
2021/05/07 14:15:52;;;;;;;0.17;0.17;;;;;;;;;;5114711;27;20561;-67
2021/05/07 14:18:17;;;;;;;0.10;0.10;;;;;;;;;;5118287;27;20204;-68
2021/05/07 14:20:46;;;;;;;0.10;0.10;;;;;;;;;;5123890;27;20218;-68
2021/05/07 14:23:14;;;;;;;0.10;0.10;;;;;;;;;;5116572;27;20234;-68
2021/05/07 14:25:39;;;;;;;0.10;0.10;;;;;;;;;;5123173;27;20204;-68
2021/05/07 14:28:07;;;;;;;0.10;0.10;;;;;;;;;;5120654;27;20206;-71
2021/05/07 14:30:34;;;;;;;0.10;0.10;;;;;;;;;;5127080;27;20204;-70
2021/05/07 14:33:00;;;;;;;0.10;0.10;;;;;;;;;;5120443;27;20271;-70
2021/05/07 14:35:26;;;;;;;0.10;0.10;;;;;;;;;;5120223;28;20220;-69
2021/05/07 14:37:52;;;;;;;0.10;0.10;;;;;;;;;;5119258;27;20211;-69
2021/05/07 14:40:19;;;;;;;0.17;0.17;;;;;;;;;;5120396;28;20237;-69
2021/05/07 14:42:48;;;;;;;0.20;0.20;;;;;;;;;;5115435;27;20304;-71